sensor_id;sensor_type;location;lat;lon;timestamp;pressure;altitude;pressure_sealevel;temperature;humidity
56928;BME280;60850;52.502;13.426;2023-07-30T00:02:21;100463.91;;;16.95;100.00
56928;BME280;60850;52.502;13.426;2023-07-30T00:04:48;100462.19;;;16.94;100.00
56928;BME280;60850;52.502;13.426;2023-07-30T00:07:15;100463.31;;;16.90;100.00
56928;BME280;60850;52.502;13.426;2023-07-30T00:09:42;100460.69;;;16.89;100.00
56928;BME280;60850;52.502;13.426;2023-07-30T00:12:10;100453.59;;;16.88;100.00
56928;BME280;60850;52.502;13.426;2023-07-30T00:14:39;100452.97;;;16.83;100.00
56928;BME280;60850;52.502;13.426;2023-07-30T00:17:08;100451.34;;;16.80;100.00
56928;BME280;60850;52.502;13.426;2023-07-30T00:19:34;100464.03;;;16.78;100.00
56928;BME280;60850;52.502;13.426;2023-07-30T00:22:01;100454.13;;;16.79;100.00
56928;BME280;60850;52.502;13.426;2023-07-30T00:24:28;100458.63;;;16.78;100.00
56928;BME280;60850;52.502;13.426;2023-07-30T00:26:55;100446.09;;;16.77;100.00
56928;BME280;60850;52.502;13.426;2023-07-30T00:29:23;100447.06;;;16.76;100.00
56928;BME280;60850;52.502;13.426;2023-07-30T00:31:50;100451.00;;;16.70;100.00
56928;BME280;60850;52.502;13.426;2023-07-30T00:34:17;100443.84;;;16.69;100.00
56928;BME280;60850;52.502;13.426;2023-07-30T00:36:45;100451.91;;;16.69;100.00
56928;BME280;60850;52.502;13.426;2023-07-30T00:39:12;100450.25;;;16.67;100.00
56928;BME280;60850;52.502;13.426;2023-07-30T00:41:39;100449.47;;;16.65;100.00
56928;BME280;60850;52.502;13.426;2023-07-30T00:44:06;100439.06;;;16.59;100.00
56928;BME280;60850;52.502;13.426;2023-07-30T00:46:34;100439.91;;;16.59;100.00
56928;BME280;60850;52.502;13.426;2023-07-30T00:49:02;100435.66;;;16.55;100.00
56928;BME280;60850;52.502;13.426;2023-07-30T00:51:29;100428.53;;;16.54;100.00
56928;BME280;60850;52.502;13.426;2023-07-30T00:53:58;100425.94;;;16.53;100.00
56928;BME280;60850;52.502;13.426;2023-07-30T00:56:26;100418.97;;;16.48;100.00
56928;BME280;60850;52.502;13.426;2023-07-30T00:58:53;100412.91;;;16.45;100.00
56928;BME280;60850;52.502;13.426;2023-07-30T01:01:21;100411.34;;;16.41;100.00
56928;BME280;60850;52.502;13.426;2023-07-30T01:03:49;100409.59;;;16.40;100.00
56928;BME280;60850;52.502;13.426;2023-07-30T01:06:17;100405.09;;;16.40;100.00
56928;BME280;60850;52.502;13.426;2023-07-30T01:08:45;100419.69;;;16.36;100.00
56928;BME280;60850;52.502;13.426;2023-07-30T01:11:12;100420.66;;;16.35;100.00
56928;BME280;60850;52.502;13.426;2023-07-30T01:13:41;100432.41;;;16.33;100.00
56928;BME280;60850;52.502;13.426;2023-07-30T01:16:09;100428.72;;;16.35;100.00
56928;BME280;60850;52.502;13.426;2023-07-30T01:18:36;100432.50;;;16.31;100.00
56928;BME280;60850;52.502;13.426;2023-07-30T01:21:05;100433.56;;;16.29;100.00
56928;BME280;60850;52.502;13.426;2023-07-30T01:23:32;100432.06;;;16.23;100.00
56928;BME280;60850;52.502;13.426;2023-07-30T01:26:04;100442.56;;;16.28;100.00
56928;BME280;60850;52.502;13.426;2023-07-30T01:28:37;100442.75;;;16.25;100.00
56928;BME280;60850;52.502;13.426;2023-07-30T01:31:06;100443.94;;;16.19;100.00
56928;BME280;60850;52.502;13.426;2023-07-30T01:33:34;100443.16;;;16.17;100.00
56928;BME280;60850;52.502;13.426;2023-07-30T01:36:02;100435.09;;;16.17;100.00
56928;BME280;60850;52.502;13.426;2023-07-30T01:38:31;100441.44;;;16.16;100.00
56928;BME280;60850;52.502;13.426;2023-07-30T01:40:59;100446.09;;;16.12;100.00
56928;BME280;60850;52.502;13.426;2023-07-30T01:43:25;100445.84;;;16.17;100.00
56928;BME280;60850;52.502;13.426;2023-07-30T01:45:52;100454.16;;;16.12;100.00
56928;BME280;60850;52.502;13.426;2023-07-30T01:48:19;100461.13;;;16.16;100.00
56928;BME280;60850;52.502;13.426;2023-07-30T01:50:46;100467.53;;;16.14;100.00
56928;BME280;60850;52.502;13.426;2023-07-30T01:53:14;100465.88;;;16.11;100.00
56928;BME280;60850;52.502;13.426;2023-07-30T01:55:42;100470.47;;;16.09;100.00
56928;BME280;60850;52.502;13.426;2023-07-30T01:58:11;100474.81;;;16.12;100.00
56928;BME280;60850;52.502;13.426;2023-07-30T02:00:38;100472.22;;;16.10;100.00
56928;BME280;60850;52.502;13.426;2023-07-30T02:03:05;100463.28;;;16.10;100.00
56928;BME280;60850;52.502;13.426;2023-07-30T02:05:33;100471.47;;;16.07;100.00
56928;BME280;60850;52.502;13.426;2023-07-30T02:08:00;100470.56;;;16.08;100.00
56928;BME280;60850;52.502;13.426;2023-07-30T02:10:27;100470.47;;;16.09;100.00
56928;BME280;60850;52.502;13.426;2023-07-30T02:12:55;100467.00;;;16.07;100.00
56928;BME280;60850;52.502;13.426;2023-07-30T02:15:22;100465.50;;;16.02;100.00
56928;BME280;60850;52.502;13.426;2023-07-30T02:17:48;100460.22;;;16.00;100.00
56928;BME280;60850;52.502;13.426;2023-07-30T02:20:16;100466.47;;;16.01;100.00
56928;BME280;60850;52.502;13.426;2023-07-30T02:22:42;100461.94;;;16.01;100.00
56928;BME280;60850;52.502;13.426;2023-07-30T02:25:09;100465.59;;;16.00;100.00
56928;BME280;60850;52.502;13.426;2023-07-30T02:27:36;100471.97;;;15.98;100.00
56928;BME280;60850;52.502;13.426;2023-07-30T02:30:06;100472.75;;;16.00;100.00
56928;BME280;60850;52.502;13.426;2023-07-30T02:32:33;100465.06;;;15.93;100.00
56928;BME280;60850;52.502;13.426;2023-07-30T02:35:00;100467.66;;;15.95;100.00
56928;BME280;60850;52.502;13.426;2023-07-30T02:37:27;100470.44;;;15.93;100.00
56928;BME280;60850;52.502;13.426;2023-07-30T02:39:54;100475.81;;;15.93;100.00
56928;BME280;60850;52.502;13.426;2023-07-30T02:42:20;100475.81;;;15.93;100.00
56928;BME280;60850;52.502;13.426;2023-07-30T02:44:47;100472.94;;;15.97;100.00
56928;BME280;60850;52.502;13.426;2023-07-30T02:47:16;100479.28;;;15.96;100.00
56928;BME280;60850;52.502;13.426;2023-07-30T02:49:43;100477.44;;;15.96;100.00
56928;BME280;60850;52.502;13.426;2023-07-30T02:52:09;100475.81;;;15.93;100.00
56928;BME280;60850;52.502;13.426;2023-07-30T02:54:36;100481.97;;;15.96;100.00
56928;BME280;60850;52.502;13.426;2023-07-30T02:57:04;100487.34;;;15.96;100.00
56928;BME280;60850;52.502;13.426;2023-07-30T02:59:31;100488.19;;;15.96;100.00
56928;BME280;60850;52.502;13.426;2023-07-30T03:02:01;100485.59;;;15.95;100.00
56928;BME280;60850;52.502;13.426;2023-07-30T03:04:29;100484.75;;;15.94;100.00
56928;BME280;60850;52.502;13.426;2023-07-30T03:06:56;100485.50;;;15.96;100.00
56928;BME280;60850;52.502;13.426;2023-07-30T03:09:23;100477.53;;;15.95;100.00
56928;BME280;60850;52.502;13.426;2023-07-30T03:11:50;100482.09;;;15.92;100.00
56928;BME280;60850;52.502;13.426;2023-07-30T03:14:17;100483.16;;;15.90;100.00
56928;BME280;60850;52.502;13.426;2023-07-30T03:16:46;100480.69;;;15.85;100.00
56928;BME280;60850;52.502;13.426;2023-07-30T03:19:13;100491.44;;;15.85;100.00
56928;BME280;60850;52.502;13.426;2023-07-30T03:21:41;100487.88;;;15.85;100.00
56928;BME280;60850;52.502;13.426;2023-07-30T03:24:09;100488.59;;;15.88;100.00
56928;BME280;60850;52.502;13.426;2023-07-30T03:26:35;100484.09;;;15.89;100.00
56928;BME280;60850;52.502;13.426;2023-07-30T03:29:02;100500.22;;;15.89;100.00
56928;BME280;60850;52.502;13.426;2023-07-30T03:31:29;100496.75;;;15.87;100.00
56928;BME280;60850;52.502;13.426;2023-07-30T03:33:56;100499.38;;;15.88;100.00
56928;BME280;60850;52.502;13.426;2023-07-30T03:36:23;100509.16;;;15.89;100.00
56928;BME280;60850;52.502;13.426;2023-07-30T03:38:51;100502.75;;;15.92;100.00
56928;BME280;60850;52.502;13.426;2023-07-30T03:41:18;100502.50;;;15.97;100.00
56928;BME280;60850;52.502;13.426;2023-07-30T03:43:45;100501.81;;;15.93;100.00
56928;BME280;60850;52.502;13.426;2023-07-30T03:46:12;100503.56;;;15.94;100.00
56928;BME280;60850;52.502;13.426;2023-07-30T03:48:39;100507.91;;;15.97;100.00
56928;BME280;60850;52.502;13.426;2023-07-30T03:51:07;100505.03;;;16.00;100.00
56928;BME280;60850;52.502;13.426;2023-07-30T03:53:34;100507.50;;;16.04;100.00
56928;BME280;60850;52.502;13.426;2023-07-30T03:56:02;100501.16;;;16.05;100.00
56928;BME280;60850;52.502;13.426;2023-07-30T03:58:29;100512.78;;;16.06;100.00
56928;BME280;60850;52.502;13.426;2023-07-30T04:00:56;100505.66;;;16.05;100.00
56928;BME280;60850;52.502;13.426;2023-07-30T04:03:23;100505.66;;;16.05;100.00
56928;BME280;60850;52.502;13.426;2023-07-30T04:05:50;100512.78;;;16.06;100.00
56928;BME280;60850;52.502;13.426;2023-07-30T04:08:17;100507.06;;;16.12;100.00
56928;BME280;60850;52.502;13.426;2023-07-30T04:10:44;100511.59;;;16.11;100.00
56928;BME280;60850;52.502;13.426;2023-07-30T04:13:13;100516.34;;;16.06;100.00
56928;BME280;60850;52.502;13.426;2023-07-30T04:15:39;100518.25;;;16.22;100.00
56928;BME280;60850;52.502;13.426;2023-07-30T04:18:06;100512.69;;;16.25;100.00
56928;BME280;60850;52.502;13.426;2023-07-30T04:20:33;100518.59;;;16.31;100.00
56928;BME280;60850;52.502;13.426;2023-07-30T04:23:00;100520.25;;;16.34;100.00
56928;BME280;60850;52.502;13.426;2023-07-30T04:25:27;100519.38;;;16.33;100.00
56928;BME280;60850;52.502;13.426;2023-07-30T04:27:54;100523.81;;;16.34;100.00
56928;BME280;60850;52.502;13.426;2023-07-30T04:30:23;100516.44;;;16.38;100.00
56928;BME280;60850;52.502;13.426;2023-07-30T04:32:50;100514.09;;;16.32;100.00
56928;BME280;60850;52.502;13.426;2023-07-30T04:35:16;100513.53;;;16.42;100.00
56928;BME280;60850;52.502;13.426;2023-07-30T04:37:44;100524.78;;;16.49;100.00
56928;BME280;60850;52.502;13.426;2023-07-30T04:40:11;100518.94;;;16.58;100.00
56928;BME280;60850;52.502;13.426;2023-07-30T04:42:38;100521.28;;;16.64;100.00
56928;BME280;60850;52.502;13.426;2023-07-30T04:45:06;100521.44;;;16.61;100.00
56928;BME280;60850;52.502;13.426;2023-07-30T04:47:34;100516.03;;;16.79;100.00
56928;BME280;60850;52.502;13.426;2023-07-30T04:50:01;100527.34;;;16.85;100.00
56928;BME280;60850;52.502;13.426;2023-07-30T04:52:28;100519.41;;;16.82;100.00
56928;BME280;60850;52.502;13.426;2023-07-30T04:54:55;100520.31;;;16.98;100.00
56928;BME280;60850;52.502;13.426;2023-07-30T04:57:22;100515.94;;;17.27;100.00
56928;BME280;60850;52.502;13.426;2023-07-30T04:59:49;100523.59;;;17.35;100.00
56928;BME280;60850;52.502;13.426;2023-07-30T05:02:16;100516.28;;;17.37;100.00
56928;BME280;60850;52.502;13.426;2023-07-30T05:04:44;100511.28;;;17.45;100.00
56928;BME280;60850;52.502;13.426;2023-07-30T05:07:11;100517.66;;;17.44;100.00
56928;BME280;60850;52.502;13.426;2023-07-30T05:09:37;100515.78;;;17.61;100.00
56928;BME280;60850;52.502;13.426;2023-07-30T05:12:05;100512.06;;;17.63;100.00
56928;BME280;60850;52.502;13.426;2023-07-30T05:14:31;100512.22;;;17.60;100.00
56928;BME280;60850;52.502;13.426;2023-07-30T05:16:58;100514.53;;;17.82;100.00
56928;BME280;60850;52.502;13.426;2023-07-30T05:19:25;100516.13;;;18.00;100.00
56928;BME280;60850;52.502;13.426;2023-07-30T05:21:54;100499.00;;;18.44;100.00
56928;BME280;60850;52.502;13.426;2023-07-30T05:24:20;100504.88;;;18.51;100.00
56928;BME280;60850;52.502;13.426;2023-07-30T05:26:47;100508.84;;;18.45;100.00
56928;BME280;60850;52.502;13.426;2023-07-30T05:29:14;100496.41;;;18.57;100.00
56928;BME280;60850;52.502;13.426;2023-07-30T05:31:41;100502.69;;;18.72;100.00
56928;BME280;60850;52.502;13.426;2023-07-30T05:34:08;100499.47;;;18.93;100.00
56928;BME280;60850;52.502;13.426;2023-07-30T05:36:35;100499.84;;;19.29;100.00
56928;BME280;60850;52.502;13.426;2023-07-30T05:39:03;100495.06;;;19.46;100.00
56928;BME280;60850;52.502;13.426;2023-07-30T05:41:30;100507.38;;;19.51;100.00
56928;BME280;60850;52.502;13.426;2023-07-30T05:43:57;100504.19;;;19.58;100.00
56928;BME280;60850;52.502;13.426;2023-07-30T05:46:24;100495.38;;;19.69;100.00
56928;BME280;60850;52.502;13.426;2023-07-30T05:48:51;100500.63;;;19.97;100.00
56928;BME280;60850;52.502;13.426;2023-07-30T05:51:20;100503.91;;;20.53;100.00
56928;BME280;60850;52.502;13.426;2023-07-30T05:53:47;100509.94;;;20.32;100.00
56928;BME280;60850;52.502;13.426;2023-07-30T05:56:16;100505.50;;;20.56;100.00
56928;BME280;60850;52.502;13.426;2023-07-30T05:58:44;100498.53;;;22.32;100.00
56928;BME280;60850;52.502;13.426;2023-07-30T06:01:11;100499.53;;;23.10;100.00
56928;BME280;60850;52.502;13.426;2023-07-30T06:03:38;100502.13;;;23.54;100.00
56928;BME280;60850;52.502;13.426;2023-07-30T06:06:05;100494.47;;;24.22;100.00
56928;BME280;60850;52.502;13.426;2023-07-30T06:08:32;100499.34;;;23.98;100.00
56928;BME280;60850;52.502;13.426;2023-07-30T06:11:00;100506.06;;;24.35;100.00
56928;BME280;60850;52.502;13.426;2023-07-30T06:13:30;100499.91;;;24.64;100.00
56928;BME280;60850;52.502;13.426;2023-07-30T06:15:57;100485.56;;;25.02;100.00
56928;BME280;60850;52.502;13.426;2023-07-30T06:18:24;100499.88;;;25.54;100.00
56928;BME280;60850;52.502;13.426;2023-07-30T06:20:51;100498.88;;;26.04;100.00
56928;BME280;60850;52.502;13.426;2023-07-30T06:23:21;100500.13;;;25.32;100.00
56928;BME280;60850;52.502;13.426;2023-07-30T06:25:48;100494.22;;;23.83;100.00
56928;BME280;60850;52.502;13.426;2023-07-30T06:28:15;100494.22;;;22.97;100.00
56928;BME280;60850;52.502;13.426;2023-07-30T06:30:43;100494.22;;;22.52;100.00
56928;BME280;60850;52.502;13.426;2023-07-30T06:33:10;100506.03;;;21.82;100.00
56928;BME280;60850;52.502;13.426;2023-07-30T06:35:38;100505.25;;;22.04;100.00
56928;BME280;60850;52.502;13.426;2023-07-30T06:38:05;100502.03;;;22.34;100.00
56928;BME280;60850;52.502;13.426;2023-07-30T06:40:32;100503.38;;;22.51;100.00
56928;BME280;60850;52.502;13.426;2023-07-30T06:43:00;100498.81;;;22.96;100.00
56928;BME280;60850;52.502;13.426;2023-07-30T06:45:27;100506.59;;;22.79;100.00
56928;BME280;60850;52.502;13.426;2023-07-30T06:47:55;100504.63;;;22.58;100.00
56928;BME280;60850;52.502;13.426;2023-07-30T06:50:22;100512.81;;;22.12;100.00
56928;BME280;60850;52.502;13.426;2023-07-30T06:52:49;100509.47;;;21.73;100.00
56928;BME280;60850;52.502;13.426;2023-07-30T06:55:16;100506.94;;;21.59;100.00
56928;BME280;60850;52.502;13.426;2023-07-30T06:57:46;100502.63;;;21.32;100.00
56928;BME280;60850;52.502;13.426;2023-07-30T07:00:14;100509.03;;;21.55;100.00
56928;BME280;60850;52.502;13.426;2023-07-30T07:02:46;100502.72;;;22.25;100.00
56928;BME280;60850;52.502;13.426;2023-07-30T07:05:15;100498.78;;;22.40;100.00
56928;BME280;60850;52.502;13.426;2023-07-30T07:07:42;100508.44;;;25.20;100.00
56928;BME280;60850;52.502;13.426;2023-07-30T07:10:09;100506.75;;;25.58;100.00
56928;BME280;60850;52.502;13.426;2023-07-30T07:12:37;100506.03;;;26.71;100.00
56928;BME280;60850;52.502;13.426;2023-07-30T07:15:05;100509.19;;;27.94;96.37
56928;BME280;60850;52.502;13.426;2023-07-30T07:17:32;100509.34;;;26.74;96.80
56928;BME280;60850;52.502;13.426;2023-07-30T07:19:59;100499.44;;;25.39;100.00
56928;BME280;60850;52.502;13.426;2023-07-30T07:22:27;100499.63;;;25.77;100.00
56928;BME280;60850;52.502;13.426;2023-07-30T07:24:54;100498.34;;;27.21;96.84
56928;BME280;60850;52.502;13.426;2023-07-30T07:27:21;100499.75;;;27.71;91.70
56928;BME280;60850;52.502;13.426;2023-07-30T07:29:49;100495.31;;;28.99;82.97
56928;BME280;60850;52.502;13.426;2023-07-30T07:32:15;100484.16;;;29.51;80.12
56928;BME280;60850;52.502;13.426;2023-07-30T07:34:45;100495.84;;;29.86;76.41
56928;BME280;60850;52.502;13.426;2023-07-30T07:37:13;100491.53;;;30.49;73.13
56928;BME280;60850;52.502;13.426;2023-07-30T07:39:42;100498.84;;;30.89;69.69
56928;BME280;60850;52.502;13.426;2023-07-30T07:42:09;100491.91;;;31.01;69.20
56928;BME280;60850;52.502;13.426;2023-07-30T07:44:36;100495.84;;;29.70;73.04
56928;BME280;60850;52.502;13.426;2023-07-30T07:47:03;100495.97;;;30.74;69.49
56928;BME280;60850;52.502;13.426;2023-07-30T07:49:30;100500.88;;;28.48;80.96
56928;BME280;60850;52.502;13.426;2023-07-30T07:51:57;100484.13;;;27.35;87.89
56928;BME280;60850;52.502;13.426;2023-07-30T07:54:24;100489.59;;;28.33;86.83
56928;BME280;60850;52.502;13.426;2023-07-30T07:56:52;100482.47;;;29.91;78.33
56928;BME280;60850;52.502;13.426;2023-07-30T07:59:19;100486.81;;;30.66;71.73
56928;BME280;60850;52.502;13.426;2023-07-30T08:01:46;100488.97;;;29.74;72.74
56928;BME280;60850;52.502;13.426;2023-07-30T08:04:16;100482.97;;;28.17;79.82
56928;BME280;60850;52.502;13.426;2023-07-30T08:06:43;100486.91;;;26.98;86.94
56928;BME280;60850;52.502;13.426;2023-07-30T08:09:10;100496.22;;;26.21;93.37
56928;BME280;60850;52.502;13.426;2023-07-30T08:11:37;100492.63;;;26.21;94.49
56928;BME280;60850;52.502;13.426;2023-07-30T08:14:05;100497.25;;;25.43;98.97
56928;BME280;60850;52.502;13.426;2023-07-30T08:16:32;100488.97;;;24.54;100.00
56928;BME280;60850;52.502;13.426;2023-07-30T08:18:59;100491.38;;;24.48;100.00
56928;BME280;60850;52.502;13.426;2023-07-30T08:21:26;100488.94;;;25.25;100.00
56928;BME280;60850;52.502;13.426;2023-07-30T08:23:53;100495.56;;;25.90;97.39
56928;BME280;60850;52.502;13.426;2023-07-30T08:26:19;100503.59;;;25.53;100.00
56928;BME280;60850;52.502;13.426;2023-07-30T08:28:46;100502.25;;;26.81;92.91
56928;BME280;60850;52.502;13.426;2023-07-30T08:31:15;100499.59;;;26.62;94.69
56928;BME280;60850;52.502;13.426;2023-07-30T08:33:42;100492.53;;;27.06;94.57
56928;BME280;60850;52.502;13.426;2023-07-30T08:36:08;100499.22;;;26.57;93.66
56928;BME280;60850;52.502;13.426;2023-07-30T08:38:35;100491.19;;;27.74;86.73
56928;BME280;60850;52.502;13.426;2023-07-30T08:41:02;100495.66;;;28.18;83.16
56928;BME280;60850;52.502;13.426;2023-07-30T08:43:29;100490.00;;;28.38;83.05
56928;BME280;60850;52.502;13.426;2023-07-30T08:45:57;100491.56;;;28.40;81.53
56928;BME280;60850;52.502;13.426;2023-07-30T08:48:26;100496.56;;;28.45;78.75
56928;BME280;60850;52.502;13.426;2023-07-30T08:50:56;100494.56;;;27.68;83.32
56928;BME280;60850;52.502;13.426;2023-07-30T08:53:24;100491.25;;;26.91;82.06
56928;BME280;60850;52.502;13.426;2023-07-30T08:55:52;100497.88;;;25.95;88.84
56928;BME280;60850;52.502;13.426;2023-07-30T08:58:21;100493.94;;;25.30;88.77
56928;BME280;60850;52.502;13.426;2023-07-30T09:00:49;100500.13;;;26.19;85.65
56928;BME280;60850;52.502;13.426;2023-07-30T09:03:18;100498.06;;;27.96;75.81
56928;BME280;60850;52.502;13.426;2023-07-30T09:05:48;100491.03;;;28.97;69.98
56928;BME280;60850;52.502;13.426;2023-07-30T09:08:15;100497.75;;;29.11;68.07
56928;BME280;60850;52.502;13.426;2023-07-30T09:10:42;100498.50;;;29.37;67.13
56928;BME280;60850;52.502;13.426;2023-07-30T09:13:09;100504.13;;;30.27;61.35
56928;BME280;60850;52.502;13.426;2023-07-30T09:15:37;100498.78;;;30.97;57.32
56928;BME280;60850;52.502;13.426;2023-07-30T09:18:05;100500.78;;;28.91;65.63
56928;BME280;60850;52.502;13.426;2023-07-30T09:20:39;100496.38;;;30.22;59.70
56928;BME280;60850;52.502;13.426;2023-07-30T09:23:09;100502.59;;;30.24;56.77
56928;BME280;60850;52.502;13.426;2023-07-30T09:25:36;100510.25;;;30.61;56.26
56928;BME280;60850;52.502;13.426;2023-07-30T09:28:05;100504.97;;;28.78;60.95
56928;BME280;60850;52.502;13.426;2023-07-30T09:30:32;100516.84;;;28.86;61.85
56928;BME280;60850;52.502;13.426;2023-07-30T09:33:00;100515.84;;;27.74;65.65
56928;BME280;60850;52.502;13.426;2023-07-30T09:35:27;100526.06;;;26.71;68.43
56928;BME280;60850;52.502;13.426;2023-07-30T09:37:58;100515.63;;;26.57;68.67
56928;BME280;60850;52.502;13.426;2023-07-30T09:40:33;100506.41;;;26.58;68.93
56928;BME280;60850;52.502;13.426;2023-07-30T09:43:02;100509.63;;;27.54;65.86
56928;BME280;60850;52.502;13.426;2023-07-30T09:45:33;100504.03;;;28.17;63.74
56928;BME280;60850;52.502;13.426;2023-07-30T09:48:02;100516.84;;;28.08;62.45
56928;BME280;60850;52.502;13.426;2023-07-30T09:50:29;100514.41;;;27.70;60.28
56928;BME280;60850;52.502;13.426;2023-07-30T09:52:58;100511.19;;;27.38;62.30
56928;BME280;60850;52.502;13.426;2023-07-30T09:55:25;100516.38;;;27.14;64.41
56928;BME280;60850;52.502;13.426;2023-07-30T09:57:54;100522.00;;;26.75;64.51
56928;BME280;60850;52.502;13.426;2023-07-30T10:00:21;100525.88;;;26.82;66.04
56928;BME280;60850;52.502;13.426;2023-07-30T10:02:49;100518.09;;;26.31;63.97
56928;BME280;60850;52.502;13.426;2023-07-30T10:05:19;100522.91;;;25.90;62.93
56928;BME280;60850;52.502;13.426;2023-07-30T10:07:55;100522.13;;;25.40;64.25
56928;BME280;60850;52.502;13.426;2023-07-30T10:10:24;100516.75;;;25.19;68.21
56928;BME280;60850;52.502;13.426;2023-07-30T10:12:55;100521.66;;;25.35;68.16
56928;BME280;60850;52.502;13.426;2023-07-30T10:15:25;100517.41;;;25.52;69.72
56928;BME280;60850;52.502;13.426;2023-07-30T10:17:53;100518.09;;;25.34;69.98
56928;BME280;60850;52.502;13.426;2023-07-30T10:20:23;100522.97;;;25.50;68.95
56928;BME280;60850;52.502;13.426;2023-07-30T10:22:52;100520.84;;;25.54;67.21
56928;BME280;60850;52.502;13.426;2023-07-30T10:25:21;100516.53;;;25.61;66.18
56928;BME280;60850;52.502;13.426;2023-07-30T10:27:50;100517.44;;;25.81;67.42
56928;BME280;60850;52.502;13.426;2023-07-30T10:30:19;100524.41;;;25.35;68.13
56928;BME280;60850;52.502;13.426;2023-07-30T10:33:01;100513.03;;;25.10;67.03
56928;BME280;60850;52.502;13.426;2023-07-30T10:35:36;100517.09;;;24.95;69.38
56928;BME280;60850;52.502;13.426;2023-07-30T10:38:14;100517.19;;;25.14;66.43
56928;BME280;60850;52.502;13.426;2023-07-30T10:40:42;100511.72;;;25.14;65.21
56928;BME280;60850;52.502;13.426;2023-07-30T10:43:15;100517.19;;;25.14;67.07
56928;BME280;60850;52.502;13.426;2023-07-30T10:45:53;100518.94;;;25.35;64.76
56928;BME280;60850;52.502;13.426;2023-07-30T10:48:29;100518.13;;;25.54;64.93
56928;BME280;60850;52.502;13.426;2023-07-30T10:50:56;100517.06;;;25.35;64.44
56928;BME280;60850;52.502;13.426;2023-07-30T10:53:23;100504.88;;;24.89;66.87
56928;BME280;60850;52.502;13.426;2023-07-30T10:55:50;100513.50;;;24.94;70.43
56928;BME280;60850;52.502;13.426;2023-07-30T10:58:18;100511.50;;;24.66;71.25
56928;BME280;60850;52.502;13.426;2023-07-30T11:00:45;100514.16;;;24.26;74.36
56928;BME280;60850;52.502;13.426;2023-07-30T11:03:14;100518.13;;;24.63;76.31
56928;BME280;60850;52.502;13.426;2023-07-30T11:05:41;100511.91;;;24.92;73.70
56928;BME280;60850;52.502;13.426;2023-07-30T11:08:08;100513.59;;;25.14;72.82
56928;BME280;60850;52.502;13.426;2023-07-30T11:10:42;100522.13;;;25.40;70.36
56928;BME280;60850;52.502;13.426;2023-07-30T11:13:09;100508.47;;;25.40;67.17
56928;BME280;60850;52.502;13.426;2023-07-30T11:15:41;100514.31;;;25.16;66.93
56928;BME280;60850;52.502;13.426;2023-07-30T11:18:08;100516.34;;;24.53;70.51
56928;BME280;60850;52.502;13.426;2023-07-30T11:20:37;100510.56;;;24.25;74.12
56928;BME280;60850;52.502;13.426;2023-07-30T11:23:17;100512.81;;;24.20;82.19
56928;BME280;60850;52.502;13.426;2023-07-30T11:25:46;100510.47;;;24.57;75.24
56928;BME280;60850;52.502;13.426;2023-07-30T11:28:15;100497.25;;;24.83;69.74
56928;BME280;60850;52.502;13.426;2023-07-30T11:30:42;100496.16;;;24.96;69.43
56928;BME280;60850;52.502;13.426;2023-07-30T11:33:15;100489.47;;;25.29;68.47
56928;BME280;60850;52.502;13.426;2023-07-30T11:35:44;100493.22;;;25.28;60.36
56928;BME280;60850;52.502;13.426;2023-07-30T11:38:12;100492.38;;;25.37;58.00
56928;BME280;60850;52.502;13.426;2023-07-30T11:40:39;100482.59;;;25.34;57.91
56928;BME280;60850;52.502;13.426;2023-07-30T11:43:07;100491.81;;;25.24;58.53
56928;BME280;60850;52.502;13.426;2023-07-30T11:45:35;100491.97;;;25.01;57.76
56928;BME280;60850;52.502;13.426;2023-07-30T11:48:09;100501.25;;;25.10;55.91
56928;BME280;60850;52.502;13.426;2023-07-30T11:50:45;100488.81;;;24.96;55.45
56928;BME280;60850;52.502;13.426;2023-07-30T11:53:13;100491.19;;;25.20;56.80
56928;BME280;60850;52.502;13.426;2023-07-30T11:55:41;100492.78;;;25.13;59.82
56928;BME280;60850;52.502;13.426;2023-07-30T11:58:09;100485.34;;;25.25;59.36
56928;BME280;60850;52.502;13.426;2023-07-30T12:00:40;100491.47;;;25.07;57.85
56928;BME280;60850;52.502;13.426;2023-07-30T12:03:11;100483.88;;;25.20;58.76
56928;BME280;60850;52.502;13.426;2023-07-30T12:05:38;100500.66;;;25.06;59.22
56928;BME280;60850;52.502;13.426;2023-07-30T12:08:13;100492.31;;;25.08;58.72
56928;BME280;60850;52.502;13.426;2023-07-30T12:10:43;100492.47;;;25.16;59.37
56928;BME280;60850;52.502;13.426;2023-07-30T12:13:12;100504.09;;;25.08;59.14
56928;BME280;60850;52.502;13.426;2023-07-30T12:15:39;100486.53;;;25.01;58.62
56928;BME280;60850;52.502;13.426;2023-07-30T12:18:06;100490.09;;;24.92;58.90
56928;BME280;60850;52.502;13.426;2023-07-30T12:20:32;100485.34;;;24.94;59.87
56928;BME280;60850;52.502;13.426;2023-07-30T12:22:59;100490.34;;;25.10;61.50
56928;BME280;60850;52.502;13.426;2023-07-30T12:25:27;100484.47;;;25.24;61.34
56928;BME280;60850;52.502;13.426;2023-07-30T12:27:54;100487.03;;;25.16;60.30
56928;BME280;60850;52.502;13.426;2023-07-30T12:30:21;100482.19;;;25.39;58.42
56928;BME280;60850;52.502;13.426;2023-07-30T12:32:49;100485.50;;;25.52;58.31
56928;BME280;60850;52.502;13.426;2023-07-30T12:35:16;100488.06;;;25.44;57.88
56928;BME280;60850;52.502;13.426;2023-07-30T12:37:43;100486.66;;;25.40;59.58